createdAt,value
2023-04-10T00:01:26.949Z,19.45
2023-04-10T00:03:54.060Z,19.47
2023-04-10T00:06:23.232Z,19.45
2023-04-10T00:08:49.944Z,19.46
2023-04-10T00:11:18.811Z,19.47
2023-04-10T00:13:48.199Z,19.46
2023-04-10T00:16:17.070Z,19.48
2023-04-10T00:18:43.704Z,19.48
2023-04-10T00:21:10.290Z,19.47
2023-04-10T00:23:42.063Z,19.47
2023-04-10T00:26:13.400Z,19.45
2023-04-10T00:28:41.452Z,19.47
2023-04-10T00:31:10.500Z,19.48
2023-04-10T00:33:41.831Z,19.47
2023-04-10T00:36:11.472Z,19.47
2023-04-10T00:38:40.496Z,19.48
2023-04-10T00:41:07.277Z,19.47
2023-04-10T00:43:36.146Z,19.48
2023-04-10T00:46:02.901Z,19.49
2023-04-10T00:48:29.533Z,19.48
2023-04-10T00:50:58.428Z,19.48
2023-04-10T00:53:29.798Z,19.48
2023-04-10T00:55:59.561Z,19.47
2023-04-10T00:58:28.905Z,19.47
2023-04-10T01:00:56.373Z,19.46
2023-04-10T01:03:23.383Z,19.47
2023-04-10T01:06:14.892Z,19.47
2023-04-10T01:08:50.463Z,19.47
2023-04-10T01:11:35.569Z,19.47
2023-04-10T01:14:27.920Z,19.46
2023-04-10T01:17:04.308Z,19.46
2023-04-10T01:20:02.610Z,19.45
2023-04-10T01:22:35.898Z,19.46
2023-04-10T01:25:14.649Z,19.45
2023-04-10T01:28:05.410Z,19.45
2023-04-10T01:30:34.801Z,19.46
2023-04-10T01:33:03.739Z,19.43
2023-04-10T01:35:35.567Z,19.40
2023-04-10T01:38:05.664Z,19.43
2023-04-10T01:40:35.019Z,19.44
2023-04-10T01:43:04.274Z,19.43
2023-04-10T01:45:32.507Z,19.44
2023-04-10T01:48:01.411Z,19.43
2023-04-10T01:50:30.612Z,19.43
2023-04-10T01:52:57.278Z,19.45
2023-04-10T01:55:24.008Z,19.43
2023-04-10T01:57:53.476Z,19.42
2023-04-10T02:00:23.182Z,19.42
2023-04-10T02:02:51.017Z,19.43
2023-04-10T02:05:23.152Z,19.43
2023-04-10T02:08:02.322Z,19.43
2023-04-10T02:10:34.266Z,19.43
2023-04-10T02:13:06.112Z,19.44
2023-04-10T02:15:34.933Z,19.44
2023-04-10T02:18:07.678Z,19.44
2023-04-10T02:20:36.444Z,19.44
2023-04-10T02:23:05.295Z,19.45
2023-04-10T02:25:34.716Z,19.43
2023-04-10T02:28:10.198Z,19.45
2023-04-10T02:30:39.423Z,19.43
2023-04-10T02:33:06.251Z,19.44
2023-04-10T02:35:36.156Z,19.44
2023-04-10T02:38:05.084Z,19.43
2023-04-10T02:40:37.507Z,19.43
2023-04-10T02:43:06.348Z,19.42
2023-04-10T02:45:35.099Z,19.42
2023-04-10T02:48:04.092Z,19.42
2023-04-10T02:50:32.307Z,19.42
2023-04-10T02:53:01.166Z,19.43
2023-04-10T02:55:30.589Z,19.40
2023-04-10T02:57:59.518Z,19.41
2023-04-10T03:00:29.282Z,19.41
2023-04-10T03:02:58.377Z,19.40
2023-04-10T03:05:25.245Z,19.40
2023-04-10T03:07:54.019Z,19.38
2023-04-10T03:10:20.803Z,19.40
2023-04-10T03:12:48.857Z,19.39
2023-04-10T03:15:16.237Z,19.37
2023-04-10T03:17:45.216Z,19.39
2023-04-10T03:20:12.377Z,19.40
2023-04-10T03:22:39.740Z,19.38
2023-04-10T03:25:09.132Z,19.39
2023-04-10T03:27:35.855Z,19.37
2023-04-10T03:30:03.039Z,19.37
2023-04-10T03:32:31.298Z,19.39
2023-04-10T03:35:00.535Z,19.37
2023-04-10T03:37:29.414Z,19.37
2023-04-10T03:39:59.235Z,19.37
2023-04-10T03:42:28.112Z,19.37
2023-04-10T03:44:59.685Z,19.36
2023-04-10T03:47:29.107Z,19.35
2023-04-10T03:49:55.950Z,19.37
2023-04-10T03:52:22.681Z,19.36
2023-04-10T03:54:52.293Z,19.36
2023-04-10T03:57:21.194Z,19.36
2023-04-10T03:59:50.377Z,19.35
2023-04-10T04:02:21.852Z,19.35
2023-04-10T04:04:49.608Z,19.35
2023-04-10T04:07:18.962Z,19.35
2023-04-10T04:09:47.975Z,19.35
2023-04-10T04:12:16.775Z,19.35
2023-04-10T04:14:44.817Z,19.35
2023-04-10T04:17:14.137Z,19.35
2023-04-10T04:19:45.534Z,19.34
2023-04-10T04:22:17.237Z,19.33
2023-04-10T04:24:46.082Z,19.33
2023-04-10T04:27:12.796Z,19.33
2023-04-10T04:29:39.443Z,19.33
2023-04-10T04:32:09.819Z,19.34
2023-04-10T04:34:38.809Z,19.34
2023-04-10T04:37:10.222Z,19.35
2023-04-10T04:39:41.618Z,19.34
2023-04-10T04:42:08.301Z,19.34
2023-04-10T04:44:38.205Z,19.34
2023-04-10T04:47:04.956Z,19.33
2023-04-10T04:49:31.665Z,19.32
2023-04-10T04:51:58.342Z,19.34
2023-04-10T04:54:27.136Z,19.34
2023-04-10T04:56:55.950Z,19.35
2023-04-10T04:59:25.042Z,19.35
2023-04-10T05:01:51.980Z,19.34
2023-04-10T05:04:21.082Z,19.35
2023-04-10T05:06:53.413Z,19.36
2023-04-10T05:09:20.600Z,19.35
2023-04-10T05:11:51.929Z,19.36
2023-04-10T05:14:22.851Z,19.36
2023-04-10T05:16:51.697Z,19.36
2023-04-10T05:19:21.091Z,19.38
2023-04-10T05:21:47.766Z,19.38
2023-04-10T05:24:16.560Z,19.38
2023-04-10T05:26:45.350Z,19.39
2023-04-10T05:29:17.316Z,19.38
2023-04-10T05:31:43.962Z,19.39
2023-04-10T05:34:13.436Z,19.39
2023-04-10T05:36:45.374Z,19.41
2023-04-10T05:39:12.202Z,19.41
2023-04-10T05:41:39.207Z,19.43
2023-04-10T05:44:08.001Z,19.44
2023-04-10T05:46:37.480Z,19.44
2023-04-10T05:49:08.904Z,19.44
2023-04-10T05:51:36.927Z,19.44
2023-04-10T05:54:05.904Z,19.44
2023-04-10T05:56:34.767Z,19.46
2023-04-10T05:59:06.659Z,19.47
2023-04-10T06:01:33.367Z,19.48
2023-04-10T06:04:00.724Z,19.47
2023-04-10T06:06:29.759Z,19.48
2023-04-10T06:08:57.111Z,19.47
2023-04-10T06:11:29.158Z,19.51
2023-04-10T06:14:14.405Z,19.33
2023-04-10T06:16:43.216Z,18.60
2023-04-10T06:19:15.007Z,18.05
2023-04-10T06:21:44.695Z,17.81
2023-04-10T06:24:14.348Z,17.51
2023-04-10T06:26:43.171Z,17.16
2023-04-10T06:29:14.943Z,17.06
2023-04-10T06:31:44.342Z,17.04
2023-04-10T06:34:11.180Z,17.41
2023-04-10T06:36:42.599Z,17.62
2023-04-10T06:39:11.611Z,17.71
2023-04-10T06:41:38.308Z,17.75
2023-04-10T06:44:04.968Z,17.83
2023-04-10T06:46:31.659Z,17.92
2023-04-10T06:49:03.017Z,17.94
2023-04-10T06:51:31.844Z,18.01
2023-04-10T06:54:00.857Z,18.03
2023-04-10T06:56:27.536Z,18.09
2023-04-10T06:59:02.557Z,18.16
2023-04-10T07:01:34.086Z,18.19
2023-04-10T07:04:01.285Z,18.55
2023-04-10T07:06:30.503Z,18.49
2023-04-10T07:08:59.385Z,18.45
2023-04-10T07:11:28.206Z,18.47
2023-04-10T07:13:58.533Z,18.52
2023-04-10T07:16:30.231Z,18.55
2023-04-10T07:18:57.293Z,18.71
2023-04-10T07:21:24.175Z,18.74
2023-04-10T07:23:50.913Z,18.73
2023-04-10T07:26:17.656Z,18.80
2023-04-10T07:28:49.008Z,18.82
2023-04-10T07:31:18.153Z,18.83
2023-04-10T07:33:50.632Z,18.89
2023-04-10T07:36:20.025Z,18.97
2023-04-10T07:38:49.099Z,18.96
2023-04-10T07:41:20.620Z,18.99
2023-04-10T07:43:47.884Z,19.03
2023-04-10T07:46:22.546Z,19.08
2023-04-10T07:48:51.428Z,19.13
2023-04-10T07:51:20.663Z,19.19
2023-04-10T07:53:49.597Z,19.24
2023-04-10T07:56:22.753Z,19.27
2023-04-10T07:58:53.057Z,19.29
2023-04-10T08:01:20.402Z,19.32
2023-04-10T08:03:47.742Z,19.33
2023-04-10T08:06:17.179Z,19.34
2023-04-10T08:08:45.939Z,19.36
2023-04-10T08:11:28.295Z,19.42
2023-04-10T08:14:02.046Z,18.46
2023-04-10T08:16:32.511Z,17.87
2023-04-10T08:18:59.493Z,17.85
2023-04-10T08:21:32.275Z,18.27
2023-04-10T08:24:00.869Z,18.45
2023-04-10T08:26:27.972Z,18.55
2023-04-10T08:28:56.663Z,18.59
2023-04-10T08:31:28.281Z,18.68
2023-04-10T08:33:58.494Z,18.70
2023-04-10T08:36:27.972Z,18.72
2023-04-10T08:38:56.927Z,18.72
2023-04-10T08:41:32.670Z,18.78
2023-04-10T08:43:59.406Z,18.81
2023-04-10T08:46:28.955Z,18.85
2023-04-10T08:49:05.609Z,18.87
2023-04-10T08:51:56.673Z,18.90
2023-04-10T08:54:32.764Z,18.92
2023-04-10T08:57:04.101Z,18.95
2023-04-10T08:59:31.450Z,18.96
2023-04-10T09:02:02.748Z,18.97
2023-04-10T09:04:34.802Z,19.00
2023-04-10T09:07:01.479Z,19.00
2023-04-10T09:09:32.384Z,19.00
2023-04-10T09:12:04.237Z,19.02
2023-04-10T09:14:32.167Z,19.03
2023-04-10T09:17:34.509Z,19.03
2023-04-10T09:20:01.425Z,19.04
2023-04-10T09:22:32.191Z,19.02
2023-04-10T09:25:02.381Z,19.04
2023-04-10T09:27:40.116Z,19.03
2023-04-10T09:30:08.394Z,19.05
2023-04-10T09:32:42.811Z,19.04
2023-04-10T09:35:10.953Z,19.03
2023-04-10T09:37:40.936Z,19.07
2023-04-10T09:40:26.213Z,19.05
2023-04-10T09:42:53.413Z,19.06
2023-04-10T09:45:20.893Z,19.06
2023-04-10T09:48:17.293Z,19.07
2023-04-10T09:50:44.102Z,19.07
2023-04-10T09:53:17.082Z,19.10
2023-04-10T09:55:43.932Z,19.08
2023-04-10T09:58:13.104Z,19.09
2023-04-10T10:00:43.421Z,19.11
2023-04-10T10:03:17.225Z,19.12
2023-04-10T10:05:45.493Z,19.13
2023-04-10T10:08:15.800Z,19.11
2023-04-10T10:10:51.114Z,19.13
2023-04-10T10:13:28.242Z,19.14
2023-04-10T10:16:02.030Z,19.19
2023-04-10T10:18:53.684Z,19.27
2023-04-10T10:21:23.930Z,19.29
2023-04-10T10:23:54.069Z,19.39
2023-04-10T10:26:23.791Z,19.46
2023-04-10T10:28:53.790Z,19.54
2023-04-10T10:31:24.410Z,19.60
2023-04-10T10:33:58.994Z,19.69
2023-04-10T10:36:25.939Z,19.74
2023-04-10T10:39:21.646Z,19.80
2023-04-10T10:42:03.797Z,19.84
2023-04-10T10:44:39.967Z,19.90
2023-04-10T10:47:09.688Z,19.95
2023-04-10T10:49:54.514Z,19.98
2023-04-10T10:53:01.385Z,20.04
2023-04-10T10:55:39.814Z,20.13
2023-04-10T10:58:07.400Z,20.12
2023-04-10T11:00:52.520Z,20.14
2023-04-10T11:03:19.372Z,20.21
2023-04-10T11:05:55.588Z,20.23
2023-04-10T11:08:35.362Z,20.26
2023-04-10T11:11:08.036Z,20.27
2023-04-10T11:13:41.478Z,20.30
2023-04-10T11:16:12.415Z,20.34
2023-04-10T11:18:56.218Z,20.37
2023-04-10T11:21:31.387Z,20.38
2023-04-10T11:23:58.011Z,20.41
2023-04-10T11:26:33.693Z,20.51
2023-04-10T11:29:03.410Z,20.46
2023-04-10T11:31:30.367Z,20.46
2023-04-10T11:33:57.631Z,20.43
2023-04-10T11:36:24.313Z,20.42
2023-04-10T11:38:58.327Z,20.42
2023-04-10T11:41:37.338Z,20.42
2023-04-10T11:44:06.223Z,20.45
2023-04-10T11:46:41.233Z,20.47
2023-04-10T11:49:11.704Z,20.46
2023-04-10T11:51:39.107Z,20.49
2023-04-10T11:54:14.431Z,20.51
2023-04-10T11:56:42.105Z,20.48
2023-04-10T11:59:13.614Z,20.48
2023-04-10T12:01:43.017Z,20.45
2023-04-10T12:04:21.171Z,20.44
2023-04-10T12:06:51.850Z,20.43
2023-04-10T12:09:21.612Z,20.39
2023-04-10T12:12:04.289Z,20.40
2023-04-10T12:14:32.505Z,20.39
2023-04-10T12:16:59.873Z,20.37
2023-04-10T12:19:26.718Z,20.38
2023-04-10T12:21:53.375Z,20.39
2023-04-10T12:24:46.451Z,20.39
2023-04-10T12:27:21.967Z,20.38
2023-04-10T12:29:52.499Z,20.36
2023-04-10T12:32:19.716Z,20.35
2023-04-10T12:35:01.432Z,20.32
2023-04-10T12:37:50.698Z,20.34
2023-04-10T12:40:20.619Z,20.32
2023-04-10T12:42:49.481Z,20.30
2023-04-10T12:45:16.502Z,20.32
2023-04-10T12:47:47.445Z,20.29
2023-04-10T12:50:17.389Z,20.28
2023-04-10T12:52:46.634Z,20.29
2023-04-10T12:55:14.277Z,20.26
2023-04-10T12:57:41.678Z,20.25
2023-04-10T13:00:09.921Z,20.24
2023-04-10T13:02:37.978Z,20.27
2023-04-10T13:05:08.681Z,20.27
2023-04-10T13:07:36.538Z,20.30
2023-04-10T13:10:06.433Z,20.28
2023-04-10T13:12:36.432Z,20.28
2023-04-10T13:15:07.532Z,20.28
2023-04-10T13:17:37.108Z,20.30
2023-04-10T13:20:06.629Z,20.25
2023-04-10T13:22:33.279Z,20.24
2023-04-10T13:25:03.815Z,20.25
2023-04-10T13:27:30.738Z,20.21
2023-04-10T13:29:57.366Z,20.20
2023-04-10T13:32:24.344Z,20.19
2023-04-10T13:34:51.016Z,20.17
2023-04-10T13:37:17.646Z,20.21
2023-04-10T13:39:44.383Z,20.18
2023-04-10T13:42:11.301Z,20.18
2023-04-10T13:44:38.077Z,20.17
2023-04-10T13:47:04.708Z,20.16
2023-04-10T13:49:31.413Z,20.15
2023-04-10T13:52:01.327Z,20.16
2023-04-10T13:54:28.660Z,20.17
2023-04-10T13:56:59.222Z,20.16
2023-04-10T13:59:28.489Z,20.17
2023-04-10T14:01:55.417Z,20.18
2023-04-10T14:04:24.394Z,20.18
2023-04-10T14:06:53.184Z,20.21
2023-04-10T14:09:24.531Z,20.21
2023-04-10T14:11:54.913Z,20.22
2023-04-10T14:14:24.007Z,20.20
2023-04-10T14:16:52.937Z,20.21
2023-04-10T14:19:19.624Z,20.20
2023-04-10T14:21:46.353Z,20.25
2023-04-10T14:24:13.039Z,20.29
2023-04-10T14:26:39.682Z,20.29
2023-04-10T14:29:08.719Z,20.34
2023-04-10T14:31:47.155Z,20.29
2023-04-10T14:34:23.989Z,20.31
2023-04-10T14:36:55.749Z,20.31
2023-04-10T14:39:27.668Z,20.25
2023-04-10T14:41:57.169Z,20.25
2023-04-10T14:44:23.910Z,20.23
2023-04-10T14:46:55.240Z,20.21
2023-04-10T14:49:24.360Z,20.21
2023-04-10T14:51:53.452Z,20.18
2023-04-10T14:54:22.069Z,20.17
2023-04-10T14:56:49.268Z,20.20
2023-04-10T14:59:18.987Z,20.17
2023-04-10T15:01:45.900Z,20.17
2023-04-10T15:04:12.923Z,20.16
2023-04-10T15:06:44.366Z,20.15
2023-04-10T15:09:11.229Z,20.15
2023-04-10T15:11:40.676Z,20.14
2023-04-10T15:14:12.000Z,20.15
2023-04-10T15:16:38.690Z,20.15
2023-04-10T15:19:05.475Z,20.14
2023-04-10T15:21:32.228Z,20.13
2023-04-10T15:24:01.074Z,20.16
2023-04-10T15:26:27.790Z,20.16
2023-04-10T15:28:54.442Z,20.15
2023-04-10T15:31:26.678Z,20.15
2023-04-10T15:33:53.634Z,20.14
2023-04-10T15:36:20.671Z,20.14
2023-04-10T15:38:49.877Z,20.14
2023-04-10T15:41:19.276Z,20.15
2023-04-10T15:43:45.954Z,20.13
2023-04-10T15:46:14.793Z,20.14
2023-04-10T15:48:41.484Z,20.15
2023-04-10T15:51:08.250Z,20.14
2023-04-10T15:53:35.028Z,20.14
2023-04-10T15:56:07.352Z,20.14
2023-04-10T15:58:34.112Z,20.13
2023-04-10T16:01:00.957Z,20.12
2023-04-10T16:03:30.643Z,20.11
2023-04-10T16:05:58.319Z,20.10
2023-04-10T16:08:30.239Z,20.10
2023-04-10T16:10:58.252Z,20.11
2023-04-10T16:13:25.009Z,20.09
2023-04-10T16:15:54.531Z,20.09
2023-04-10T16:18:23.870Z,20.08
2023-04-10T16:20:52.645Z,20.07
2023-04-10T16:23:19.228Z,20.11
2023-04-10T16:25:48.090Z,20.11
2023-04-10T16:28:17.020Z,20.07
2023-04-10T16:30:46.405Z,20.08
2023-04-10T16:33:13.111Z,20.08
2023-04-10T16:35:39.927Z,20.04
2023-04-10T16:38:06.625Z,20.03
2023-04-10T16:40:33.294Z,20.08
2023-04-10T16:43:01.084Z,20.12
2023-04-10T16:45:27.905Z,20.14
2023-04-10T16:47:56.836Z,20.09
2023-04-10T16:50:23.650Z,19.69
2023-04-10T16:52:50.544Z,19.37
2023-04-10T16:55:22.866Z,19.16
2023-04-10T16:57:51.666Z,19.43
2023-04-10T17:00:18.652Z,19.61
2023-04-10T17:02:47.501Z,19.67
2023-04-10T17:05:16.364Z,19.73
2023-04-10T17:07:45.338Z,19.78
2023-04-10T17:10:12.068Z,19.82
2023-04-10T17:12:42.495Z,19.83
2023-04-10T17:15:12.425Z,19.85
2023-04-10T17:17:41.335Z,19.85
2023-04-10T17:20:09.856Z,19.89
2023-04-10T17:22:38.800Z,19.89
2023-04-10T17:25:08.649Z,19.90
2023-04-10T17:27:40.745Z,19.90
2023-04-10T17:30:15.726Z,19.91
2023-04-10T17:32:47.163Z,19.89
2023-04-10T17:35:17.023Z,19.89
2023-04-10T17:37:46.210Z,19.90
2023-04-10T17:40:13.083Z,19.88
2023-04-10T17:42:44.655Z,19.87
2023-04-10T17:45:11.960Z,19.87
2023-04-10T17:47:40.884Z,19.88
2023-04-10T17:50:08.544Z,19.87
2023-04-10T17:52:35.525Z,19.86
2023-04-10T17:55:04.976Z,19.84
2023-04-10T17:57:33.945Z,19.84
2023-04-10T18:00:09.849Z,19.85
2023-04-10T18:02:36.803Z,19.83
2023-04-10T18:05:07.173Z,19.82
2023-04-10T18:07:34.359Z,19.83
2023-04-10T18:10:03.300Z,19.82
2023-04-10T18:12:32.231Z,19.81
2023-04-10T18:15:01.041Z,19.81
2023-04-10T18:17:30.273Z,19.80
2023-04-10T18:19:57.596Z,19.80
2023-04-10T18:22:24.481Z,19.81
2023-04-10T18:24:56.449Z,19.79
2023-04-10T18:27:23.249Z,19.80
2023-04-10T18:29:52.675Z,19.80
2023-04-10T18:32:22.317Z,19.79
2023-04-10T18:34:50.332Z,19.79
2023-04-10T18:37:19.414Z,19.78
2023-04-10T18:39:46.051Z,19.76
2023-04-10T18:42:15.614Z,19.76
2023-04-10T18:44:49.509Z,19.77
2023-04-10T18:47:16.283Z,19.78
2023-04-10T18:49:42.981Z,19.78
2023-04-10T18:52:09.735Z,19.76
2023-04-10T18:54:38.481Z,19.77
2023-04-10T18:57:07.307Z,19.78
2023-04-10T18:59:34.017Z,19.76
2023-04-10T19:02:03.221Z,19.75
2023-04-10T19:04:34.888Z,19.76
2023-04-10T19:07:03.843Z,19.74
2023-04-10T19:09:30.679Z,19.74
2023-04-10T19:11:59.962Z,19.73
2023-04-10T19:14:28.798Z,19.73
2023-04-10T19:16:57.662Z,19.73
2023-04-10T19:19:27.374Z,19.73
2023-04-10T19:21:56.399Z,19.73
2023-04-10T19:24:30.686Z,19.72
2023-04-10T19:26:59.491Z,19.73
2023-04-10T19:29:26.269Z,19.73
2023-04-10T19:31:52.863Z,19.71
2023-04-10T19:34:19.509Z,19.73
2023-04-10T19:36:48.273Z,19.72
2023-04-10T19:39:15.175Z,19.72
2023-04-10T19:41:44.070Z,19.73
2023-04-10T19:44:13.519Z,19.73
2023-04-10T19:46:40.147Z,19.73
2023-04-10T19:49:11.618Z,19.73
2023-04-10T19:51:38.241Z,19.73
2023-04-10T19:54:05.035Z,19.72
2023-04-10T19:56:31.769Z,19.72
2023-04-10T19:59:01.037Z,19.73
2023-04-10T20:01:30.541Z,19.72
2023-04-10T20:03:57.858Z,19.72
2023-04-10T20:06:26.809Z,19.72
2023-04-10T20:08:55.935Z,19.72
2023-04-10T20:11:30.580Z,19.73
2023-04-10T20:14:02.197Z,19.71
2023-04-10T20:16:28.892Z,19.73
2023-04-10T20:18:57.761Z,19.72
2023-04-10T20:21:27.655Z,19.72
2023-04-10T20:23:54.206Z,19.71
2023-04-10T20:26:25.686Z,19.72
2023-04-10T20:28:53.279Z,19.71
2023-04-10T20:31:19.988Z,19.73
2023-04-10T20:33:48.952Z,19.72
2023-04-10T20:36:17.824Z,19.73
2023-04-10T20:38:46.822Z,19.72
2023-04-10T20:41:15.612Z,19.73
2023-04-10T20:43:42.219Z,19.74
2023-04-10T20:46:09.158Z,19.74
2023-04-10T20:48:38.015Z,19.74
2023-04-10T20:51:05.491Z,19.73
2023-04-10T20:53:36.899Z,19.73
2023-04-10T20:56:06.024Z,19.75
2023-04-10T20:58:33.482Z,19.75
2023-04-10T21:01:02.453Z,19.75
2023-04-10T21:03:31.840Z,19.75
2023-04-10T21:06:03.173Z,19.75
2023-04-10T21:08:34.562Z,19.75
2023-04-10T21:11:02.453Z,19.75
2023-04-10T21:13:31.208Z,19.76
2023-04-10T21:16:00.061Z,19.76
2023-04-10T21:18:26.773Z,19.79
2023-04-10T21:20:56.521Z,19.93
2023-04-10T21:23:27.794Z,19.98
2023-04-10T21:25:54.956Z,19.90
2023-04-10T21:28:24.347Z,19.89
2023-04-10T21:30:51.001Z,19.98
2023-04-10T21:33:17.642Z,19.92
2023-04-10T21:35:44.890Z,19.90
2023-04-10T21:38:14.755Z,19.88
2023-04-10T21:40:52.119Z,19.90
2023-04-10T21:43:22.534Z,19.91
2023-04-10T21:45:49.259Z,19.90
2023-04-10T21:48:16.169Z,19.89
2023-04-10T21:50:42.885Z,19.88
2023-04-10T21:53:12.053Z,19.87
2023-04-10T21:55:38.679Z,19.85
2023-04-10T21:58:05.321Z,19.84
2023-04-10T22:00:35.337Z,19.87
2023-04-10T22:03:04.525Z,19.85
2023-04-10T22:05:34.520Z,19.86
2023-04-10T22:08:01.364Z,19.84
2023-04-10T22:10:30.374Z,19.84
2023-04-10T22:12:59.221Z,19.83
2023-04-10T22:15:28.871Z,19.86
2023-04-10T22:18:01.048Z,19.84
2023-04-10T22:20:29.989Z,19.84
2023-04-10T22:22:58.952Z,19.81
2023-04-10T22:25:28.117Z,19.84
2023-04-10T22:27:56.901Z,19.86
2023-04-10T22:30:27.077Z,19.87
2023-04-10T22:32:57.004Z,19.89
2023-04-10T22:35:23.859Z,19.88
2023-04-10T22:37:56.867Z,19.87
2023-04-10T22:40:25.769Z,19.87
2023-04-10T22:42:52.408Z,19.88
2023-04-10T22:45:19.161Z,19.89
2023-04-10T22:47:45.776Z,19.88
2023-04-10T22:50:15.470Z,19.88
2023-04-10T22:52:42.080Z,19.87
2023-04-10T22:55:08.889Z,19.84
2023-04-10T22:57:40.229Z,19.86
2023-04-10T23:00:07.686Z,19.86
2023-04-10T23:02:37.015Z,19.85
2023-04-10T23:05:09.013Z,19.83
2023-04-10T23:07:37.846Z,19.83
2023-04-10T23:10:07.178Z,19.82
2023-04-10T23:12:33.863Z,19.80
2023-04-10T23:15:02.691Z,19.81
2023-04-10T23:17:29.442Z,19.81
2023-04-10T23:19:58.811Z,19.80
2023-04-10T23:22:30.157Z,19.80
2023-04-10T23:25:01.641Z,19.81
2023-04-10T23:27:28.303Z,19.82
2023-04-10T23:29:55.026Z,19.82
2023-04-10T23:32:21.688Z,19.82
2023-04-10T23:34:52.969Z,19.82
2023-04-10T23:37:19.612Z,19.82
2023-04-10T23:39:50.942Z,19.84
2023-04-10T23:42:17.556Z,19.85
2023-04-10T23:44:44.219Z,19.82
2023-04-10T23:47:12.970Z,19.84
2023-04-10T23:49:42.156Z,19.82
2023-04-10T23:52:10.022Z,19.84
2023-04-10T23:54:36.659Z,19.82
2023-04-10T23:57:03.348Z,19.81
2023-04-10T23:59:32.214Z,19.82
